Time;durP1;ratioP1;P1;durP2;ratioP2;P2;SDS_P1;SDS_P2;PMS_P1;PMS_P2;Temp;Humidity;BMP_temperature;BMP_pressure;BME280_temperature;BME280_humidity;BME280_pressure;Samples;Min_cycle;Max_cycle;Signal;HPM_P1;HPM_P2
2023/07/25 00:00:29;;;;;;;5.20;3.30;;;;;;;19.72;73.36;97939.67;105044;1267;61957;-22
2023/07/25 00:02:56;;;;;;;6.50;3.50;;;;;;;20.13;73.29;97936.34;105111;1266;61039;-22
2023/07/25 00:05:23;;;;;;;6.00;3.50;;;;;;;20.61;71.91;97933.08;105086;1268;72260;-22
2023/07/25 00:07:50;;;;;;;4.50;3.30;;;;;;;20.65;71.12;97933.70;105049;1266;74331;-22
2023/07/25 00:10:18;;;;;;;11.30;3.60;;;;;;;20.49;71.13;97933.77;103118;1265;2734601;-23
2023/07/25 00:12:45;;;;;;;6.30;3.90;;;;;;;20.26;71.53;97928.98;105002;1263;61117;-22
2023/07/25 00:15:17;;;;;;;12.90;4.10;;;;;;;20.00;72.19;97922.17;105205;1265;61138;-22
2023/07/25 00:17:44;;;;;;;5.90;3.70;;;;;;;19.76;72.87;97913.94;105131;1263;72203;-22
2023/07/25 00:20:11;;;;;;;7.70;3.80;;;;;;;19.57;73.73;97912.73;105172;1263;74787;-23
2023/07/25 00:22:38;;;;;;;11.50;3.90;;;;;;;19.94;73.96;97915.02;105224;1263;72752;-23
2023/07/25 00:25:06;;;;;;;9.40;4.10;;;;;;;20.43;72.16;97930.77;105220;1264;61238;-22
2023/07/25 00:27:33;;;;;;;6.40;3.90;;;;;;;20.49;71.52;97933.89;105140;1263;61145;-22
2023/07/25 00:29:59;;;;;;;5.90;4.00;;;;;;;20.36;71.22;97934.39;105140;1265;72811;-22
2023/07/25 00:32:26;;;;;;;8.40;4.40;;;;;;;20.15;71.60;97940.33;104964;1266;74730;-23
2023/07/25 00:34:53;;;;;;;10.80;4.40;;;;;;;19.84;72.36;97943.92;104995;1266;71484;-22
2023/07/25 00:37:20;;;;;;;10.10;4.50;;;;;;;19.54;73.00;97945.70;105168;1264;61076;-22
2023/07/25 00:39:52;;;;;;;10.00;4.70;;;;;;;19.35;73.95;97940.52;104978;1268;61128;-22
2023/07/25 00:42:19;;;;;;;15.60;4.20;;;;;;;19.69;73.36;97928.80;104888;1266;73053;-22
2023/07/25 00:44:46;;;;;;;14.20;4.20;;;;;;;19.96;71.87;97919.20;105130;1266;74187;-22
2023/07/25 00:47:14;;;;;;;11.30;4.70;;;;;;;19.92;71.62;97916.62;104941;1266;72748;-22
2023/07/25 00:49:42;;;;;;;12.90;4.40;;;;;;;19.78;71.88;97911.73;104780;1266;61150;-22
2023/07/25 00:52:09;;;;;;;8.20;4.40;;;;;;;19.59;72.12;97901.91;104822;1271;61145;-23
2023/07/25 00:54:39;;;;;;;17.70;4.40;;;;;;;19.37;72.70;97900.89;104765;1267;72731;-23
2023/07/25 00:57:06;;;;;;;8.90;3.60;;;;;;;19.22;73.28;97899.91;104774;1267;74339;-22
2023/07/25 00:59:33;;;;;;;6.50;3.20;;;;;;;19.63;73.26;97896.78;105115;1264;72593;-22
2023/07/25 01:02:00;;;;;;;6.90;4.00;;;;;;;20.06;71.55;97892.83;104955;1264;61069;-22
2023/07/25 01:04:27;;;;;;;4.50;3.70;;;;;;;20.10;70.91;97891.17;105363;1262;61125;-23
2023/07/25 01:06:54;;;;;;;10.00;4.10;;;;;;;19.95;71.31;97891.36;105319;1262;73032;-22
2023/07/25 01:09:43;;;;;;;9.60;4.40;;;;;;;19.75;71.39;97892.45;105204;1264;74179;-23
2023/07/25 01:12:11;;;;;;;9.30;4.20;;;;;;;19.48;71.97;97889.48;105465;1256;72442;-22
2023/07/25 01:14:38;;;;;;;8.80;4.40;;;;;;;19.25;72.56;97887.84;105327;1263;61178;-22
2023/07/25 01:17:14;;;;;;;8.60;3.90;;;;;;;19.08;73.17;97886.55;105268;1265;61533;-22
2023/07/25 01:19:43;;;;;;;6.00;3.50;;;;;;;19.51;73.19;97878.23;105259;1258;71586;-23
2023/07/25 01:22:10;;;;;;;8.80;4.00;;;;;;;19.95;71.75;97871.57;105506;1257;74027;-23
2023/07/25 01:24:42;;;;;;;8.70;3.70;;;;;;;19.98;71.20;97864.08;105337;1265;72650;-23
2023/07/25 01:27:09;;;;;;;11.00;4.30;;;;;;;19.81;71.07;97856.90;105187;1256;61141;-22
2023/07/25 01:29:36;;;;;;;5.60;4.00;;;;;;;19.59;71.46;97858.54;105190;1259;61093;-22
2023/07/25 01:32:03;;;;;;;7.80;4.20;;;;;;;19.36;72.16;97855.75;105336;1262;73069;-23
2023/07/25 01:34:30;;;;;;;9.20;4.30;;;;;;;19.13;72.88;97850.38;105181;1263;74398;-22
2023/07/25 01:36:58;;;;;;;9.90;4.00;;;;;;;18.96;73.54;97848.29;105180;1262;72598;-22
2023/07/25 01:39:25;;;;;;;5.60;3.40;;;;;;;19.36;73.79;97842.67;105447;1263;61051;-22
2023/07/25 01:41:52;;;;;;;7.70;3.50;;;;;;;19.84;72.22;97835.88;105252;1261;61196;-22
2023/07/25 01:44:19;;;;;;;11.70;4.20;;;;;;;19.88;71.55;97839.95;105278;1257;72917;-22
2023/07/25 01:46:46;;;;;;;10.90;5.00;;;;;;;19.71;71.60;97834.90;105252;1256;74338;-22
2023/07/25 01:49:13;;;;;;;7.30;4.40;;;;;;;19.47;72.05;97837.70;105464;1261;72634;-22
2023/07/25 01:51:40;;;;;;;11.60;4.20;;;;;;;19.21;72.48;97840.64;105203;1262;61182;-22
2023/07/25 01:54:07;;;;;;;8.50;5.00;;;;;;;18.96;73.07;97841.55;105253;1262;61798;-22
2023/07/25 01:56:35;;;;;;;5.20;3.60;;;;;;;18.76;73.87;97841.55;105378;1262;72957;-22
2023/07/25 01:59:02;;;;;;;13.90;4.20;;;;;;;19.16;73.89;97841.14;105114;1257;74192;-22
2023/07/25 02:05:17;;;;;;;8.00;4.10;;;;;;;19.60;71.63;97838.88;105569;1259;61192;-22
2023/07/25 02:07:44;;;;;;;7.70;4.20;;;;;;;19.41;71.88;97842.00;105535;1260;61153;-22
2023/07/25 02:10:11;;;;;;;8.10;4.30;;;;;;;19.17;72.39;97842.02;105087;1256;72775;-22
2023/07/25 02:12:38;;;;;;;10.40;5.10;;;;;;;18.96;72.93;97846.14;105435;1261;74186;-22
2023/07/25 02:15:06;;;;;;;11.00;4.80;;;;;;;18.76;73.34;97852.48;105109;1263;72370;-22
2023/07/25 02:17:33;;;;;;;9.10;4.20;;;;;;;18.64;74.14;97859.35;105316;1262;61138;-22
2023/07/25 02:20:00;;;;;;;10.00;4.10;;;;;;;19.14;73.67;97857.79;105552;1270;61120;-22
2023/07/25 02:22:27;;;;;;;19.80;4.30;;;;;;;19.68;71.62;97854.86;105160;1260;73590;-22
2023/07/25 02:24:55;;;;;;;17.60;5.10;;;;;;;19.66;70.85;97848.79;105185;1262;74268;-22
2023/07/25 02:27:22;;;;;;;10.40;5.20;;;;;;;19.50;71.03;97851.16;105179;1260;72360;-22
2023/07/25 02:29:49;;;;;;;14.60;5.40;;;;;;;19.31;71.42;97847.25;105138;1260;61162;-22
2023/07/25 02:32:16;;;;;;;15.60;5.40;;;;;;;19.12;72.09;97844.17;105076;1262;61251;-22
2023/07/25 02:34:43;;;;;;;19.30;6.00;;;;;;;18.92;72.82;97844.20;105256;1260;72981;-22
2023/07/25 02:37:10;;;;;;;12.00;4.80;;;;;;;18.76;73.28;97844.77;105176;1265;74309;-22
2023/07/25 02:39:37;;;;;;;16.60;5.90;;;;;;;19.16;73.45;97843.29;105370;1260;72718;-22
2023/07/25 02:42:05;;;;;;;15.50;4.50;;;;;;;19.58;71.79;97837.64;105511;1257;60993;-21
2023/07/25 02:44:32;;;;;;;15.60;4.50;;;;;;;19.60;71.21;97831.45;105443;1260;61244;-22
2023/07/25 02:46:59;;;;;;;14.10;5.00;;;;;;;19.47;71.16;97838.91;105301;1262;72752;-23
2023/07/25 02:49:26;;;;;;;11.30;5.10;;;;;;;19.31;71.31;97839.30;105461;1261;74307;-22
2023/07/25 02:51:52;;;;;;;13.60;5.50;;;;;;;19.07;71.99;97838.70;105387;1257;72657;-22
2023/07/25 02:54:19;;;;;;;10.80;4.80;;;;;;;18.90;72.63;97843.27;105141;1257;61068;-22
2023/07/25 02:56:46;;;;;;;11.90;4.20;;;;;;;18.81;73.45;97845.48;105164;1262;61157;-22
2023/07/25 02:59:13;;;;;;;13.40;4.80;;;;;;;19.28;72.88;97844.01;105463;1257;72948;-22
2023/07/25 03:01:40;;;;;;;8.50;4.60;;;;;;;19.73;71.19;97841.31;105425;1262;74128;-22
2023/07/25 03:04:07;;;;;;;6.10;3.70;;;;;;;19.75;70.19;97841.17;105604;1262;72458;-22
2023/07/25 03:06:34;;;;;;;7.60;4.40;;;;;;;19.57;70.35;97834.14;105429;1261;61115;-22
2023/07/25 03:09:01;;;;;;;8.80;4.90;;;;;;;19.36;70.80;97833.22;105484;1262;61230;-22
2023/07/25 03:11:28;;;;;;;10.50;4.80;;;;;;;19.15;71.73;97835.80;105548;1261;72840;-22
2023/07/25 03:13:55;;;;;;;12.40;5.00;;;;;;;18.96;72.65;97839.67;105335;1264;73396;-22
2023/07/25 03:16:22;;;;;;;13.70;5.60;;;;;;;18.76;73.17;97842.77;105489;1260;73173;-22
2023/07/25 03:18:49;;;;;;;12.00;5.70;;;;;;;19.07;72.59;97839.64;105595;1257;60987;-22
2023/07/25 03:21:16;;;;;;;10.60;5.50;;;;;;;19.33;71.46;97837.45;105225;1258;61185;-22
2023/07/25 03:23:43;;;;;;;12.20;6.40;;;;;;;19.32;71.13;97836.41;105456;1262;72976;-23
2023/07/25 03:26:11;;;;;;;11.20;6.20;;;;;;;19.21;71.53;97832.64;105424;1260;74240;-22
2023/07/25 03:28:38;;;;;;;9.20;6.20;;;;;;;19.06;72.43;97849.80;105584;1261;72989;-23
2023/07/25 03:31:07;;;;;;;10.80;4.90;;;;;;;18.52;76.31;97909.30;105584;1261;61898;-22
2023/07/25 03:33:34;;;;;;;9.70;5.20;;;;;;;18.72;77.15;97900.79;105279;1262;61790;-22
2023/07/25 03:36:01;;;;;;;11.30;5.40;;;;;;;19.20;75.25;97872.18;105390;1260;72960;-22
2023/07/25 03:38:28;;;;;;;10.20;5.30;;;;;;;19.29;74.41;97858.58;105633;1264;74317;-22
2023/07/25 03:40:55;;;;;;;9.80;5.40;;;;;;;19.24;74.75;97883.73;105636;1263;72653;-22
2023/07/25 03:43:22;;;;;;;11.70;5.90;;;;;;;19.21;75.20;97885.45;105272;1263;61088;-23
2023/07/25 03:45:48;;;;;;;7.90;4.60;;;;;;;19.22;75.19;97878.23;105193;1261;61187;-22
2023/07/25 03:48:15;;;;;;;8.80;4.80;;;;;;;19.77;74.43;97869.69;105849;1257;72839;-22
2023/07/25 03:50:42;;;;;;;6.50;4.60;;;;;;;20.31;72.23;97874.16;105877;1256;74695;-22
2023/07/25 03:53:09;;;;;;;7.00;4.80;;;;;;;20.45;71.49;97869.73;105636;1257;73034;-22
2023/07/25 03:55:36;;;;;;;9.40;5.60;;;;;;;20.33;71.91;97878.09;105497;1258;61077;-22
2023/07/25 03:58:03;;;;;;;8.90;5.40;;;;;;;20.13;72.89;97878.59;105570;1253;61065;-23
2023/07/25 04:00:29;;;;;;;9.10;6.40;;;;;;;19.96;73.62;97880.20;105697;1257;71813;-22
2023/07/25 04:02:56;;;;;;;12.30;5.70;;;;;;;19.81;74.23;97896.13;105760;1258;74317;-23
2023/07/25 04:05:39;;;;;;;10.20;4.90;;;;;;;19.74;75.10;97902.92;105733;1255;72406;-22
2023/07/25 04:08:06;;;;;;;10.00;4.70;;;;;;;20.30;73.57;97891.58;105702;1254;61062;-22
2023/07/25 04:10:33;;;;;;;6.80;4.80;;;;;;;20.78;71.91;97888.05;105466;1252;61145;-22
2023/07/25 04:13:00;;;;;;;7.50;5.40;;;;;;;20.85;71.04;97887.47;105708;1259;73903;-23
2023/07/25 04:15:26;;;;;;;9.90;5.30;;;;;;;20.78;71.32;97888.02;105661;1258;74178;-22
2023/07/25 04:17:53;;;;;;;10.30;6.40;;;;;;;20.71;71.28;97882.55;105636;1254;72351;-22
2023/07/25 04:20:20;;;;;;;9.00;5.80;;;;;;;20.64;71.88;97877.60;105799;1258;61082;-22
2023/07/25 04:22:47;;;;;;;9.40;5.80;;;;;;;20.59;72.19;97876.19;105787;1258;61053;-22
2023/07/25 04:25:14;;;;;;;6.20;4.10;;;;;;;20.61;71.98;97864.29;105861;1257;73843;-22
2023/07/25 04:27:42;;;;;;;6.80;4.70;;;;;;;21.21;71.12;97854.02;105822;1258;74273;-22
2023/07/25 04:30:10;;;;;;;7.40;4.60;;;;;;;21.84;69.14;97849.61;105648;1259;72694;-22
2023/07/25 04:32:37;;;;;;;16.50;6.50;;;;;;;22.03;68.15;97843.51;105447;1257;61144;-22
2023/07/25 04:35:04;;;;;;;14.40;9.20;;;;;;;21.98;67.79;97828.70;105850;1258;61050;-22
2023/07/25 04:37:31;;;;;;;136.40;91.20;;;;;;;21.65;67.24;97819.58;105728;1258;73843;-23
2023/07/25 04:39:58;;;;;;;38.80;27.90;;;;;;;21.41;68.41;97813.19;105665;1258;74157;-22
2023/07/25 04:42:25;;;;;;;19.40;14.40;;;;;;;21.37;69.47;97805.59;105668;1256;72711;-22
2023/07/25 04:44:52;;;;;;;16.00;10.40;;;;;;;21.34;69.61;97794.80;105646;1259;61141;-23
2023/07/25 04:47:19;;;;;;;12.30;8.60;;;;;;;21.33;70.07;97791.31;105524;1265;61612;-22
2023/07/25 04:49:46;;;;;;;12.80;6.40;;;;;;;21.30;70.51;97793.11;105766;1253;73845;-23
2023/07/25 04:52:12;;;;;;;10.40;5.90;;;;;;;21.71;69.07;97795.94;105576;1254;73355;-23
2023/07/25 04:54:39;;;;;;;22.60;13.30;;;;;;;22.01;67.50;97803.01;105623;1257;72667;-22
2023/07/25 04:57:06;;;;;;;16.00;10.70;;;;;;;22.03;67.43;97800.73;105687;1257;61153;-22
2023/07/25 04:59:33;;;;;;;52.80;28.70;;;;;;;21.88;67.31;97800.75;105768;1257;61135;-22
2023/07/25 05:02:00;;;;;;;116.70;61.70;;;;;;;21.65;67.98;97801.83;105742;1258;73806;-22
2023/07/25 05:04:27;;;;;;;58.60;34.70;;;;;;;21.48;69.08;97804.58;105871;1257;74299;-22
2023/07/25 05:06:54;;;;;;;120.30;65.20;;;;;;;21.26;69.30;97810.19;105864;1252;73039;-22
2023/07/25 05:09:21;;;;;;;29.50;18.40;;;;;;;21.11;69.74;97810.36;105690;1254;61224;-22
2023/07/25 05:11:51;;;;;;;26.70;9.40;;;;;;;21.08;70.55;97799.96;105564;1266;61100;-22
2023/07/25 05:14:18;;;;;;;14.00;7.90;;;;;;;21.68;69.90;97815.83;105708;1255;73847;-22
2023/07/25 05:16:44;;;;;;;10.20;6.50;;;;;;;22.21;68.13;97819.30;105889;1258;74336;-22
2023/07/25 05:19:12;;;;;;;12.50;6.60;;;;;;;22.36;67.65;97812.59;105689;1256;72622;-22
2023/07/25 05:21:39;;;;;;;18.30;10.50;;;;;;;22.20;67.26;97820.66;105543;1254;61053;-21
2023/07/25 05:24:05;;;;;;;19.70;11.90;;;;;;;21.97;67.67;97817.07;105773;1257;61097;-22
2023/07/25 05:26:32;;;;;;;15.60;8.20;;;;;;;21.77;68.50;97815.81;105682;1256;73825;-22
2023/07/25 05:28:59;;;;;;;14.00;8.20;;;;;;;21.74;68.85;97811.17;105819;1257;73217;-22
2023/07/25 05:31:26;;;;;;;70.60;12.20;;;;;;;21.64;68.32;97806.58;105733;1257;71055;-22
2023/07/25 05:33:54;;;;;;;36.60;9.90;;;;;;;21.51;69.00;97803.80;105811;1254;61164;-22
2023/07/25 05:36:21;;;;;;;9.50;5.00;;;;;;;21.55;70.13;97796.33;105838;1259;61097;-22
2023/07/25 05:38:47;;;;;;;10.00;5.50;;;;;;;22.18;68.13;97801.20;105720;1255;74166;-22
2023/07/25 05:41:14;;;;;;;21.60;7.20;;;;;;;22.82;66.28;97802.67;105786;1257;74682;-22
2023/07/25 05:43:41;;;;;;;15.80;7.80;;;;;;;22.95;65.09;97808.02;105685;1257;72729;-22
2023/07/25 05:46:08;;;;;;;11.40;7.00;;;;;;;22.98;65.56;97806.06;105823;1254;61043;-23
2023/07/25 05:48:35;;;;;;;13.10;7.20;;;;;;;22.83;65.10;97806.45;105687;1258;61177;-22
2023/07/25 05:51:02;;;;;;;11.60;6.70;;;;;;;22.61;66.17;97794.45;105835;1254;73842;-22
2023/07/25 05:53:29;;;;;;;8.90;6.30;;;;;;;22.57;66.88;97795.21;105732;1258;74398;-22
2023/07/25 05:55:56;;;;;;;11.20;6.80;;;;;;;22.54;66.99;97794.67;105722;1252;72714;-22
2023/07/25 05:58:23;;;;;;;16.80;6.80;;;;;;;22.46;67.10;97801.09;105505;1254;61070;-22
2023/07/25 06:00:50;;;;;;;12.10;7.20;;;;;;;22.40;67.41;97802.77;105678;1257;61168;-22
2023/07/25 06:03:17;;;;;;;10.30;7.30;;;;;;;22.31;67.54;97791.30;105694;1254;74345;-22
2023/07/25 06:05:44;;;;;;;8.00;5.30;;;;;;;22.33;68.16;97785.52;105549;1256;74371;-22
2023/07/25 06:08:11;;;;;;;10.00;5.90;;;;;;;22.98;67.63;97777.16;105597;1258;72698;-22
2023/07/25 06:10:38;;;;;;;9.20;5.40;;;;;;;23.70;65.40;97776.89;105485;1253;61147;-22
2023/07/25 06:13:06;;;;;;;8.20;6.20;;;;;;;24.00;63.85;97770.16;105397;1260;61140;-22
2023/07/25 06:15:35;;;;;;;14.20;9.00;;;;;;;24.11;63.70;97767.30;105571;1253;72383;-22
2023/07/25 06:18:06;;;;;;;14.20;9.60;;;;;;;24.21;63.32;97767.34;105719;1257;73142;-22
2023/07/25 06:20:33;;;;;;;12.80;9.30;;;;;;;24.27;63.08;97767.47;105691;1254;72615;-22
2023/07/25 06:23:00;;;;;;;9.60;7.30;;;;;;;24.31;62.72;97762.52;105838;1257;61299;-23
2023/07/25 06:25:28;;;;;;;10.00;6.80;;;;;;;24.30;63.01;97758.24;105578;1254;61146;-22
2023/07/25 06:27:55;;;;;;;10.70;6.80;;;;;;;24.29;62.61;97758.93;105867;1257;73865;-22
2023/07/25 06:30:21;;;;;;;11.00;7.50;;;;;;;24.25;63.30;97756.06;105792;1257;74336;-22
2023/07/25 06:32:48;;;;;;;12.20;7.30;;;;;;;24.30;63.28;97756.17;105806;1254;73039;-22
2023/07/25 06:35:19;;;;;;;10.70;7.50;;;;;;;24.32;62.30;97751.84;105887;1254;61061;-22
2023/07/25 06:37:46;;;;;;;15.40;7.80;;;;;;;24.38;63.33;97755.73;105837;1258;61192;-22
2023/07/25 06:40:13;;;;;;;11.60;8.20;;;;;;;24.48;62.84;97751.25;105864;1255;74560;-22
2023/07/25 06:42:39;;;;;;;11.80;7.20;;;;;;;24.54;63.12;97743.27;105840;1256;74433;-22
2023/07/25 06:45:08;;;;;;;13.90;8.80;;;;;;;24.60;62.80;97741.63;105678;1255;72706;-22
2023/07/25 06:47:35;;;;;;;14.40;8.40;;;;;;;24.69;62.95;97739.95;105716;1252;61564;-22
2023/07/25 06:50:03;;;;;;;10.60;8.00;;;;;;;24.85;62.23;97735.71;105892;1257;61235;-22
2023/07/25 06:52:30;;;;;;;15.10;7.90;;;;;;;25.14;62.43;97733.64;105721;1258;73664;-22
2023/07/25 06:54:57;;;;;;;11.90;7.80;;;;;;;25.44;60.37;97731.52;105909;1258;74381;-22
2023/07/25 06:57:24;;;;;;;11.00;7.70;;;;;;;25.61;59.72;97730.11;105779;1257;72517;-22
2023/07/25 06:59:51;;;;;;;12.50;8.10;;;;;;;25.73;59.19;97718.36;105714;1254;61053;-22
2023/07/25 07:02:18;;;;;;;15.70;7.80;;;;;;;25.87;58.79;97716.37;105830;1255;61054;-22
2023/07/25 07:04:45;;;;;;;10.90;7.50;;;;;;;26.04;59.08;97722.27;105908;1254;73710;-22
2023/07/25 07:07:12;;;;;;;12.60;6.50;;;;;;;26.24;58.58;97723.48;105689;1257;74620;-22
2023/07/25 07:09:39;;;;;;;11.00;8.00;;;;;;;26.42;57.82;97721.67;105659;1254;72409;-22
2023/07/25 07:12:07;;;;;;;8.70;7.10;;;;;;;26.52;57.33;97722.88;105505;1254;61145;-22
2023/07/25 07:14:34;;;;;;;11.70;7.80;;;;;;;26.58;57.45;97725.79;105501;1258;61109;-22
2023/07/25 07:17:01;;;;;;;8.30;6.80;;;;;;;26.59;58.07;97720.39;105682;1255;72905;-24
2023/07/25 07:19:28;;;;;;;10.20;7.10;;;;;;;26.77;58.09;97718.42;105793;1257;74135;-22
2023/07/25 07:21:55;;;;;;;16.50;7.00;;;;;;;27.02;56.62;97711.70;105708;1254;72645;-22
2023/07/25 07:24:22;;;;;;;10.90;6.00;;;;;;;27.20;55.61;97713.67;105641;1253;61152;-22
2023/07/25 07:26:49;;;;;;;10.10;6.80;;;;;;;27.20;55.28;97715.07;105601;1257;61171;-22
2023/07/25 07:29:16;;;;;;;12.10;6.70;;;;;;;27.18;55.03;97715.23;105585;1254;73781;-22
2023/07/25 07:31:43;;;;;;;9.30;6.40;;;;;;;27.08;53.48;97714.91;105775;1254;74304;-23
2023/07/25 07:34:15;;;;;;;9.70;7.30;;;;;;;26.66;54.58;97722.92;105705;1254;71688;-22
2023/07/25 07:36:42;;;;;;;10.40;6.60;;;;;;;26.42;56.47;97726.53;105532;1254;60944;-23
2023/07/25 07:39:10;;;;;;;11.60;7.10;;;;;;;26.41;56.41;97719.76;105440;1258;61164;-23
2023/07/25 07:41:37;;;;;;;10.10;6.50;;;;;;;26.27;56.42;97720.59;105431;1254;73897;-23
2023/07/25 07:44:04;;;;;;;9.50;7.00;;;;;;;26.08;56.71;97709.80;105769;1257;73366;-22
2023/07/25 07:46:32;;;;;;;8.90;7.20;;;;;;;26.05;56.30;97710.27;105629;1254;72647;-22
2023/07/25 07:48:59;;;;;;;9.70;6.60;;;;;;;26.06;57.56;97711.02;105520;1255;61182;-23
2023/07/25 07:51:26;;;;;;;12.40;7.10;;;;;;;26.15;57.70;97713.82;105285;1254;61143;-22
2023/07/25 07:53:53;;;;;;;21.10;7.00;;;;;;;26.23;57.03;97714.98;105718;1254;73783;-22
2023/07/25 07:56:20;;;;;;;11.80;7.00;;;;;;;25.93;57.58;97715.16;105614;1255;74251;-22
2023/07/25 07:58:47;;;;;;;10.70;7.10;;;;;;;26.11;58.20;97709.45;105732;1260;73182;-22
2023/07/25 08:01:19;;;;;;;10.80;6.80;;;;;;;26.47;57.96;97704.23;105836;1254;61073;-23
2023/07/25 08:03:47;;;;;;;7.50;6.50;;;;;;;26.85;56.84;97701.36;105647;1258;61318;-23
2023/07/25 08:06:14;;;;;;;7.90;5.30;;;;;;;27.19;56.06;97702.04;105664;1254;73841;-22
2023/07/25 08:08:41;;;;;;;12.50;7.30;;;;;;;27.18;53.97;97699.53;105856;1255;74298;-22
2023/07/25 08:11:08;;;;;;;10.60;6.40;;;;;;;27.11;55.09;97699.90;105729;1254;72625;-22
2023/07/25 08:13:35;;;;;;;10.10;6.90;;;;;;;27.37;54.70;97699.20;105898;1255;61397;-22
2023/07/25 08:16:02;;;;;;;7.60;5.50;;;;;;;27.84;53.80;97697.13;105860;1257;61100;-22
2023/07/25 08:18:29;;;;;;;9.50;6.80;;;;;;;28.19;52.90;97694.54;105759;1254;73796;-22
2023/07/25 08:20:57;;;;;;;10.30;6.40;;;;;;;28.57;52.57;97701.16;105626;1254;74331;-22
2023/07/25 08:23:24;;;;;;;8.90;6.20;;;;;;;28.68;51.31;97701.23;105670;1258;72625;-23
2023/07/25 08:25:51;;;;;;;9.30;6.00;;;;;;;28.68;52.41;97704.00;105659;1254;61105;-22
2023/07/25 08:28:18;;;;;;;9.70;6.70;;;;;;;29.09;51.49;97701.39;105771;1255;61202;-22
2023/07/25 08:30:45;;;;;;;16.40;7.10;;;;;;;29.54;49.93;97703.89;105716;1253;74196;-23
2023/07/25 08:33:15;;;;;;;10.90;6.30;;;;;;;29.67;49.33;97707.30;105695;1253;65789;-23
2023/07/25 08:35:42;;;;;;;8.90;6.10;;;;;;;29.55;48.86;97708.43;105604;1254;64107;-22
2023/07/25 08:38:10;;;;;;;12.60;7.00;;;;;;;29.51;49.17;97710.30;105800;1254;61803;-22
2023/07/25 08:40:37;;;;;;;10.40;6.60;;;;;;;29.64;50.26;97711.52;105668;1257;61217;-22
2023/07/25 08:43:08;;;;;;;9.10;6.00;;;;;;;29.93;48.67;97709.30;105513;1256;65075;-22
2023/07/25 08:45:35;;;;;;;10.10;6.60;;;;;;;29.56;48.04;97708.35;105439;1255;65753;-22
2023/07/25 08:48:04;;;;;;;9.40;6.70;;;;;;;29.54;49.09;97706.77;105415;1253;64053;-23
2023/07/25 08:50:31;;;;;;;9.40;6.70;;;;;;;29.81;49.98;97700.95;105499;1259;61192;-22
2023/07/25 08:53:00;;;;;;;14.50;7.20;;;;;;;29.75;48.35;97703.19;105599;1255;61128;-22
2023/07/25 08:55:27;;;;;;;12.30;6.90;;;;;;;29.49;48.38;97707.95;105643;1254;73833;-23
2023/07/25 08:57:54;;;;;;;10.70;6.30;;;;;;;29.59;48.49;97710.33;105731;1257;74259;-23
2023/07/25 09:00:20;;;;;;;9.40;6.80;;;;;;;29.25;48.54;97707.27;105611;1253;64079;-23
2023/07/25 09:02:49;;;;;;;9.80;6.20;;;;;;;29.21;49.66;97701.94;105469;1253;61109;-22
2023/07/25 09:05:19;;;;;;;9.90;6.40;;;;;;;29.37;48.58;97707.30;105614;1253;61231;-23
2023/07/25 09:07:46;;;;;;;9.60;6.50;;;;;;;29.19;48.66;97707.74;105607;1254;72692;-22
2023/07/25 09:10:13;;;;;;;9.10;5.60;;;;;;;29.29;48.68;97701.30;105588;1254;74359;-23
2023/07/25 09:12:40;;;;;;;8.40;6.30;;;;;;;29.19;47.97;97704.68;105749;1254;72699;-22
2023/07/25 09:15:08;;;;;;;8.40;6.50;;;;;;;29.54;48.08;97701.23;105432;1254;61137;-22
2023/07/25 09:17:35;;;;;;;10.70;6.20;;;;;;;29.88;47.22;97703.70;105489;1252;61227;-23
2023/07/25 09:20:04;;;;;;;11.10;6.50;;;;;;;30.02;47.91;97702.73;105569;1257;65024;-22
2023/07/25 09:22:32;;;;;;;8.30;6.60;;;;;;;30.22;47.97;97695.20;105463;1254;65545;-22
2023/07/25 09:24:59;;;;;;;8.20;6.00;;;;;;;30.54;47.96;97692.90;105522;1253;64099;-23
2023/07/25 09:27:26;;;;;;;10.90;6.60;;;;;;;30.68;46.09;97693.81;105745;1253;61040;-23
2023/07/25 09:29:53;;;;;;;8.80;6.90;;;;;;;30.60;44.86;97689.63;105605;1257;61097;-23
2023/07/25 09:32:25;;;;;;;9.10;6.60;;;;;;;30.19;44.87;97685.93;105657;1256;65069;-23
2023/07/25 09:35:00;;;;;;;11.50;6.20;;;;;;;29.99;44.64;97687.58;105669;1257;64488;-22
2023/07/25 09:37:30;;;;;;;8.60;6.30;;;;;;;29.65;45.98;97691.98;105686;1253;72445;-23
2023/07/25 09:39:57;;;;;;;9.50;6.70;;;;;;;29.81;46.06;97687.58;105539;1258;61061;-22
2023/07/25 09:42:24;;;;;;;11.30;6.60;;;;;;;29.65;47.33;97679.58;105699;1257;61170;-23
2023/07/25 09:44:52;;;;;;;9.90;6.70;;;;;;;29.57;47.78;97684.27;105647;1254;74275;-22
2023/07/25 09:47:23;;;;;;;10.00;6.30;;;;;;;29.51;47.71;97686.54;105636;1253;73129;-24
2023/07/25 09:49:52;;;;;;;9.40;6.50;;;;;;;29.77;47.26;97688.15;105635;1253;64067;-23
2023/07/25 09:52:19;;;;;;;9.00;7.10;;;;;;;29.89;46.03;97684.77;105577;1253;61135;-22
2023/07/25 09:54:46;;;;;;;9.10;6.30;;;;;;;30.37;48.00;97681.94;105709;1253;61109;-23
2023/07/25 09:57:12;;;;;;;10.70;6.70;;;;;;;31.06;46.27;97679.21;105919;1254;65115;-22
2023/07/25 09:59:39;;;;;;;9.90;7.20;;;;;;;31.48;45.17;97676.02;105758;1254;65682;-23
2023/07/25 10:02:07;;;;;;;11.10;6.50;;;;;;;31.63;44.57;97671.98;105707;1253;64099;-23
2023/07/25 10:04:37;;;;;;;10.50;6.40;;;;;;;31.34;43.37;97674.54;105623;1253;61058;-23
2023/07/25 10:07:04;;;;;;;8.80;6.60;;;;;;;31.41;44.41;97670.27;105576;1254;61165;-23
2023/07/25 10:09:31;;;;;;;10.60;6.70;;;;;;;31.23;44.36;97668.96;105530;1253;65031;-23
2023/07/25 10:12:16;;;;;;;10.10;6.90;;;;;;;30.89;43.89;97670.52;105448;1254;67095;-23
2023/07/25 10:14:43;;;;;;;11.50;7.60;;;;;;;30.80;44.30;97662.10;105859;1253;64736;-23
2023/07/25 10:17:10;;;;;;;13.30;7.00;;;;;;;30.60;43.95;97654.82;105656;1253;61060;-23
2023/07/25 10:19:54;;;;;;;7.90;6.60;;;;;;;30.51;44.79;97658.69;105800;1256;61171;-24
2023/07/25 10:22:32;;;;;;;9.30;7.60;;;;;;;30.22;45.26;97656.91;105683;1254;73771;-23
2023/07/25 10:24:59;;;;;;;9.60;6.80;;;;;;;30.63;44.44;97659.85;105402;1260;65045;-23
2023/07/25 10:27:27;;;;;;;11.60;7.60;;;;;;;30.86;43.61;97659.05;105593;1253;64936;-23
2023/07/25 10:29:58;;;;;;;11.50;7.70;;;;;;;31.19;43.46;97655.79;105682;1253;60947;-23
2023/07/25 10:32:42;;;;;;;10.50;7.10;;;;;;;31.80;43.96;97653.60;105619;1258;61166;-23
2023/07/25 10:35:09;;;;;;;8.80;6.80;;;;;;;32.53;42.14;97651.94;105655;1254;65339;-23
2023/07/25 10:37:43;;;;;;;11.40;7.30;;;;;;;32.22;40.53;97648.51;105883;1253;66562;-23
2023/07/25 10:40:17;;;;;;;11.00;7.20;;;;;;;31.74;40.62;97647.73;105679;1258;64855;-23
2023/07/25 10:42:47;;;;;;;15.00;6.30;;;;;;;31.41;41.72;97649.03;105667;1253;62790;-23
2023/07/25 10:45:20;;;;;;;;;;;;;;;31.26;42.09;97648.71;105904;1252;61190;-23
2023/07/25 10:47:49;;;;;;;10.50;7.90;;;;;;;30.92;41.57;97644.00;105717;1257;65798;-22
2023/07/25 10:50:19;;;;;;;10.50;7.50;;;;;;;31.00;42.50;97641.84;105719;1254;66642;-23
2023/07/25 10:52:46;;;;;;;12.30;7.30;;;;;;;31.02;42.59;97637.29;105680;1254;63072;-23
2023/07/25 10:55:14;;;;;;;9.40;7.00;;;;;;;30.81;43.56;97644.83;105703;1253;61072;-22
2023/07/25 10:57:41;;;;;;;8.50;7.00;;;;;;;30.80;43.33;97647.28;105849;1257;61379;-22
2023/07/25 11:00:10;;;;;;;10.50;7.80;;;;;;;30.77;43.00;97647.63;105709;1253;64974;-22
2023/07/25 11:02:40;;;;;;;10.20;6.70;;;;;;;30.93;42.51;97640.55;105692;1253;66637;-22
2023/07/25 11:05:13;;;;;;;10.40;7.40;;;;;;;31.20;42.45;97628.95;105309;1253;64733;-22
2023/07/25 11:08:00;;;;;;;10.00;7.80;;;;;;;31.23;42.64;97621.83;105670;1257;61058;-22
2023/07/25 11:10:30;;;;;;;11.50;7.90;;;;;;;30.91;42.85;97621.52;105448;1263;61404;-22
2023/07/25 11:12:58;;;;;;;10.80;7.80;;;;;;;30.67;42.98;97617.42;105499;1257;73828;-22
2023/07/25 11:15:25;;;;;;;10.70;7.50;;;;;;;30.87;42.74;97617.34;105299;1257;66632;-23
2023/07/25 11:17:56;;;;;;;9.30;7.30;;;;;;;30.94;42.27;97611.31;105358;1256;66121;-22
2023/07/25 11:20:24;;;;;;;10.10;7.40;;;;;;;30.62;43.71;97615.25;105286;1257;61143;-22
2023/07/25 11:22:52;;;;;;;11.80;8.00;;;;;;;30.25;44.31;97619.35;105452;1258;61102;-22
2023/07/25 11:25:19;;;;;;;11.00;7.90;;;;;;;30.43;43.87;97620.55;105328;1256;74503;-22